sensor_id;sensor_type;location;lat;lon;timestamp;P1;durP1;ratioP1;P2;durP2;ratioP2
2452;SDS011;63678;47.994;7.854;2022-12-31T00:02:18;3.72;;;1.42;;
2452;SDS011;63678;47.994;7.854;2022-12-31T00:04:50;4.72;;;1.55;;
2452;SDS011;63678;47.994;7.854;2022-12-31T00:07:23;3.63;;;1.60;;
2452;SDS011;63678;47.994;7.854;2022-12-31T00:09:55;3.90;;;1.30;;
2452;SDS011;63678;47.994;7.854;2022-12-31T00:12:27;7.30;;;4.47;;
2452;SDS011;63678;47.994;7.854;2022-12-31T00:15:00;9.35;;;4.80;;
2452;SDS011;63678;47.994;7.854;2022-12-31T00:17:32;3.40;;;1.77;;
2452;SDS011;63678;47.994;7.854;2022-12-31T00:20:04;3.90;;;1.80;;
2452;SDS011;63678;47.994;7.854;2022-12-31T00:22:37;4.67;;;1.63;;
2452;SDS011;63678;47.994;7.854;2022-12-31T00:25:10;3.13;;;1.20;;
2452;SDS011;63678;47.994;7.854;2022-12-31T00:27:42;3.50;;;1.33;;
2452;SDS011;63678;47.994;7.854;2022-12-31T00:30:15;3.20;;;1.33;;
2452;SDS011;63678;47.994;7.854;2022-12-31T00:32:47;3.10;;;1.40;;
2452;SDS011;63678;47.994;7.854;2022-12-31T00:35:20;3.00;;;1.40;;
2452;SDS011;63678;47.994;7.854;2022-12-31T00:37:52;3.78;;;1.20;;
2452;SDS011;63678;47.994;7.854;2022-12-31T00:40:24;3.97;;;1.40;;
2452;SDS011;63678;47.994;7.854;2022-12-31T00:42:59;4.25;;;1.50;;
2452;SDS011;63678;47.994;7.854;2022-12-31T00:45:31;3.50;;;1.58;;
2452;SDS011;63678;47.994;7.854;2022-12-31T00:48:04;5.10;;;1.90;;
2452;SDS011;63678;47.994;7.854;2022-12-31T00:50:37;2.97;;;1.40;;
2452;SDS011;63678;47.994;7.854;2022-12-31T00:53:09;3.03;;;1.30;;
2452;SDS011;63678;47.994;7.854;2022-12-31T00:55:41;3.72;;;1.50;;
2452;SDS011;63678;47.994;7.854;2022-12-31T00:58:14;3.40;;;1.50;;
2452;SDS011;63678;47.994;7.854;2022-12-31T01:00:46;3.40;;;1.50;;
2452;SDS011;63678;47.994;7.854;2022-12-31T01:03:18;3.58;;;1.30;;
2452;SDS011;63678;47.994;7.854;2022-12-31T01:05:51;4.35;;;1.40;;
2452;SDS011;63678;47.994;7.854;2022-12-31T01:08:23;3.10;;;1.20;;
2452;SDS011;63678;47.994;7.854;2022-12-31T01:10:55;3.40;;;1.58;;
2452;SDS011;63678;47.994;7.854;2022-12-31T01:16:41;3.63;;;1.20;;
2452;SDS011;63678;47.994;7.854;2022-12-31T01:19:21;4.18;;;1.40;;
2452;SDS011;63678;47.994;7.854;2022-12-31T01:21:56;3.25;;;1.20;;
2452;SDS011;63678;47.994;7.854;2022-12-31T01:24:29;3.28;;;1.50;;
2452;SDS011;63678;47.994;7.854;2022-12-31T01:27:01;3.33;;;1.73;;
2452;SDS011;63678;47.994;7.854;2022-12-31T01:29:33;3.13;;;1.40;;
2452;SDS011;63678;47.994;7.854;2022-12-31T01:32:06;3.28;;;1.50;;
2452;SDS011;63678;47.994;7.854;2022-12-31T01:34:39;3.35;;;1.52;;
2452;SDS011;63678;47.994;7.854;2022-12-31T01:37:11;3.30;;;1.70;;
2452;SDS011;63678;47.994;7.854;2022-12-31T01:39:44;2.90;;;1.27;;
2452;SDS011;63678;47.994;7.854;2022-12-31T01:42:16;3.35;;;1.50;;
2452;SDS011;63678;47.994;7.854;2022-12-31T01:44:50;4.40;;;1.42;;
2452;SDS011;63678;47.994;7.854;2022-12-31T01:47:33;3.40;;;1.52;;
2452;SDS011;63678;47.994;7.854;2022-12-31T01:52:58;3.83;;;1.57;;
2452;SDS011;63678;47.994;7.854;2022-12-31T01:55:38;4.88;;;1.60;;
2452;SDS011;63678;47.994;7.854;2022-12-31T01:58:43;3.40;;;1.50;;
2452;SDS011;63678;47.994;7.854;2022-12-31T02:01:26;2.90;;;1.30;;
2452;SDS011;63678;47.994;7.854;2022-12-31T02:04:04;4.63;;;1.33;;
2452;SDS011;63678;47.994;7.854;2022-12-31T02:06:42;3.30;;;1.43;;
2452;SDS011;63678;47.994;7.854;2022-12-31T02:09:19;3.83;;;1.65;;
2452;SDS011;63678;47.994;7.854;2022-12-31T02:11:52;4.03;;;1.27;;
2452;SDS011;63678;47.994;7.854;2022-12-31T02:14:26;4.95;;;1.30;;
2452;SDS011;63678;47.994;7.854;2022-12-31T02:26:22;3.35;;;1.60;;
2452;SDS011;63678;47.994;7.854;2022-12-31T02:32:16;3.20;;;1.40;;
2452;SDS011;63678;47.994;7.854;2022-12-31T02:34:58;3.60;;;1.60;;
2452;SDS011;63678;47.994;7.854;2022-12-31T02:37:38;3.45;;;1.40;;
2452;SDS011;63678;47.994;7.854;2022-12-31T02:40:15;3.63;;;1.75;;
2452;SDS011;63678;47.994;7.854;2022-12-31T02:42:50;3.00;;;1.50;;
2452;SDS011;63678;47.994;7.854;2022-12-31T02:45:27;3.13;;;1.40;;
2452;SDS011;63678;47.994;7.854;2022-12-31T02:55:06;3.67;;;1.80;;
2452;SDS011;63678;47.994;7.854;2022-12-31T02:57:52;3.20;;;1.45;;
2452;SDS011;63678;47.994;7.854;2022-12-31T03:00:48;4.90;;;1.50;;
2452;SDS011;63678;47.994;7.854;2022-12-31T03:03:44;3.27;;;1.40;;
2452;SDS011;63678;47.994;7.854;2022-12-31T03:06:16;4.20;;;1.50;;
2452;SDS011;63678;47.994;7.854;2022-12-31T03:08:52;4.40;;;1.52;;
2452;SDS011;63678;47.994;7.854;2022-12-31T03:11:43;3.15;;;1.55;;
2452;SDS011;63678;47.994;7.854;2022-12-31T03:14:38;3.13;;;1.50;;
2452;SDS011;63678;47.994;7.854;2022-12-31T03:17:11;3.73;;;1.40;;
2452;SDS011;63678;47.994;7.854;2022-12-31T03:19:44;4.10;;;1.50;;
2452;SDS011;63678;47.994;7.854;2022-12-31T03:22:36;3.03;;;1.38;;
2452;SDS011;63678;47.994;7.854;2022-12-31T03:25:12;3.00;;;1.33;;
2452;SDS011;63678;47.994;7.854;2022-12-31T03:28:11;3.70;;;1.60;;
2452;SDS011;63678;47.994;7.854;2022-12-31T03:30:48;3.60;;;1.70;;
2452;SDS011;63678;47.994;7.854;2022-12-31T03:33:34;3.42;;;1.73;;
2452;SDS011;63678;47.994;7.854;2022-12-31T03:36:11;3.10;;;1.42;;
2452;SDS011;63678;47.994;7.854;2022-12-31T03:38:45;3.38;;;1.67;;
2452;SDS011;63678;47.994;7.854;2022-12-31T03:41:22;3.53;;;1.85;;
2452;SDS011;63678;47.994;7.854;2022-12-31T03:43:55;3.40;;;1.60;;
2452;SDS011;63678;47.994;7.854;2022-12-31T03:46:28;3.25;;;1.60;;
2452;SDS011;63678;47.994;7.854;2022-12-31T03:49:01;3.10;;;1.40;;
2452;SDS011;63678;47.994;7.854;2022-12-31T03:51:33;2.90;;;1.25;;
2452;SDS011;63678;47.994;7.854;2022-12-31T03:54:05;3.00;;;1.50;;
2452;SDS011;63678;47.994;7.854;2022-12-31T03:56:38;3.30;;;1.30;;
2452;SDS011;63678;47.994;7.854;2022-12-31T03:59:10;3.05;;;1.35;;
2452;SDS011;63678;47.994;7.854;2022-12-31T04:01:43;3.63;;;1.65;;
2452;SDS011;63678;47.994;7.854;2022-12-31T04:04:15;3.42;;;1.92;;
2452;SDS011;63678;47.994;7.854;2022-12-31T04:06:48;4.05;;;1.40;;
2452;SDS011;63678;47.994;7.854;2022-12-31T04:09:20;3.30;;;1.60;;
2452;SDS011;63678;47.994;7.854;2022-12-31T04:11:56;2.97;;;1.67;;
2452;SDS011;63678;47.994;7.854;2022-12-31T04:14:28;2.92;;;1.45;;
2452;SDS011;63678;47.994;7.854;2022-12-31T04:17:00;3.15;;;1.48;;
2452;SDS011;63678;47.994;7.854;2022-12-31T04:19:33;3.75;;;1.50;;
2452;SDS011;63678;47.994;7.854;2022-12-31T04:22:05;3.00;;;1.40;;
2452;SDS011;63678;47.994;7.854;2022-12-31T04:24:38;3.28;;;1.33;;
2452;SDS011;63678;47.994;7.854;2022-12-31T04:27:11;3.10;;;1.40;;
2452;SDS011;63678;47.994;7.854;2022-12-31T04:29:44;3.05;;;1.30;;
2452;SDS011;63678;47.994;7.854;2022-12-31T04:32:17;4.28;;;1.60;;
2452;SDS011;63678;47.994;7.854;2022-12-31T04:34:49;4.33;;;1.50;;
2452;SDS011;63678;47.994;7.854;2022-12-31T04:37:21;3.15;;;1.60;;
2452;SDS011;63678;47.994;7.854;2022-12-31T04:39:54;4.13;;;1.90;;
2452;SDS011;63678;47.994;7.854;2022-12-31T04:42:35;3.05;;;1.30;;
2452;SDS011;63678;47.994;7.854;2022-12-31T04:45:08;3.10;;;1.40;;
2452;SDS011;63678;47.994;7.854;2022-12-31T04:47:41;3.27;;;1.60;;
2452;SDS011;63678;47.994;7.854;2022-12-31T04:50:13;3.08;;;1.30;;
2452;SDS011;63678;47.994;7.854;2022-12-31T04:52:45;3.30;;;1.30;;
2452;SDS011;63678;47.994;7.854;2022-12-31T04:55:18;3.38;;;1.60;;
2452;SDS011;63678;47.994;7.854;2022-12-31T04:57:50;3.42;;;1.40;;
2452;SDS011;63678;47.994;7.854;2022-12-31T05:00:22;3.53;;;1.67;;
2452;SDS011;63678;47.994;7.854;2022-12-31T05:02:55;3.20;;;1.50;;
2452;SDS011;63678;47.994;7.854;2022-12-31T05:05:27;6.97;;;1.60;;
2452;SDS011;63678;47.994;7.854;2022-12-31T05:07:59;3.95;;;2.03;;
2452;SDS011;63678;47.994;7.854;2022-12-31T05:10:32;3.88;;;1.77;;
2452;SDS011;63678;47.994;7.854;2022-12-31T05:13:04;6.13;;;1.70;;
2452;SDS011;63678;47.994;7.854;2022-12-31T05:15:37;3.70;;;1.70;;
2452;SDS011;63678;47.994;7.854;2022-12-31T05:18:10;4.10;;;1.80;;
2452;SDS011;63678;47.994;7.854;2022-12-31T05:20:42;3.17;;;1.50;;
2452;SDS011;63678;47.994;7.854;2022-12-31T05:23:15;3.10;;;1.43;;
2452;SDS011;63678;47.994;7.854;2022-12-31T05:25:48;3.40;;;1.52;;
2452;SDS011;63678;47.994;7.854;2022-12-31T05:28:21;3.22;;;1.40;;
2452;SDS011;63678;47.994;7.854;2022-12-31T05:30:53;3.35;;;1.65;;
2452;SDS011;63678;47.994;7.854;2022-12-31T05:33:26;4.27;;;1.83;;
2452;SDS011;63678;47.994;7.854;2022-12-31T05:35:58;4.07;;;1.50;;
2452;SDS011;63678;47.994;7.854;2022-12-31T05:38:31;3.47;;;1.70;;
2452;SDS011;63678;47.994;7.854;2022-12-31T05:41:05;3.00;;;1.40;;
2452;SDS011;63678;47.994;7.854;2022-12-31T05:43:39;3.17;;;1.30;;
2452;SDS011;63678;47.994;7.854;2022-12-31T05:46:11;3.10;;;1.30;;
2452;SDS011;63678;47.994;7.854;2022-12-31T05:48:43;3.92;;;1.60;;
2452;SDS011;63678;47.994;7.854;2022-12-31T05:51:16;3.72;;;1.35;;
2452;SDS011;63678;47.994;7.854;2022-12-31T05:53:51;3.42;;;1.58;;
2452;SDS011;63678;47.994;7.854;2022-12-31T05:56:25;3.85;;;1.80;;
2452;SDS011;63678;47.994;7.854;2022-12-31T05:58:57;3.50;;;1.60;;
2452;SDS011;63678;47.994;7.854;2022-12-31T06:01:30;3.65;;;1.40;;
2452;SDS011;63678;47.994;7.854;2022-12-31T06:04:02;4.35;;;1.70;;
2452;SDS011;63678;47.994;7.854;2022-12-31T06:06:34;4.72;;;1.75;;
2452;SDS011;63678;47.994;7.854;2022-12-31T06:09:07;3.40;;;1.70;;
2452;SDS011;63678;47.994;7.854;2022-12-31T06:11:39;4.57;;;1.87;;
2452;SDS011;63678;47.994;7.854;2022-12-31T06:14:12;5.40;;;1.80;;
2452;SDS011;63678;47.994;7.854;2022-12-31T06:16:45;3.97;;;1.90;;
2452;SDS011;63678;47.994;7.854;2022-12-31T06:19:17;3.80;;;1.95;;
2452;SDS011;63678;47.994;7.854;2022-12-31T06:21:50;4.03;;;1.45;;
2452;SDS011;63678;47.994;7.854;2022-12-31T06:24:22;3.20;;;1.40;;
2452;SDS011;63678;47.994;7.854;2022-12-31T06:26:54;3.25;;;1.65;;
2452;SDS011;63678;47.994;7.854;2022-12-31T06:29:26;3.80;;;2.00;;
2452;SDS011;63678;47.994;7.854;2022-12-31T06:31:59;3.38;;;1.70;;
2452;SDS011;63678;47.994;7.854;2022-12-31T06:34:32;3.45;;;1.70;;
2452;SDS011;63678;47.994;7.854;2022-12-31T06:37:04;3.23;;;1.63;;
2452;SDS011;63678;47.994;7.854;2022-12-31T06:39:37;5.18;;;1.60;;
2452;SDS011;63678;47.994;7.854;2022-12-31T06:42:09;3.55;;;1.58;;
2452;SDS011;63678;47.994;7.854;2022-12-31T06:44:41;2.90;;;1.30;;
2452;SDS011;63678;47.994;7.854;2022-12-31T06:47:14;4.28;;;1.80;;
2452;SDS011;63678;47.994;7.854;2022-12-31T06:49:46;3.70;;;1.80;;
2452;SDS011;63678;47.994;7.854;2022-12-31T06:52:19;4.13;;;1.77;;
2452;SDS011;63678;47.994;7.854;2022-12-31T06:54:51;6.82;;;2.00;;
2452;SDS011;63678;47.994;7.854;2022-12-31T06:57:24;3.80;;;1.63;;
2452;SDS011;63678;47.994;7.854;2022-12-31T06:59:57;3.53;;;1.60;;
2452;SDS011;63678;47.994;7.854;2022-12-31T07:05:49;3.33;;;1.38;;
2452;SDS011;63678;47.994;7.854;2022-12-31T07:08:32;2.97;;;1.40;;
2452;SDS011;63678;47.994;7.854;2022-12-31T07:11:33;3.10;;;1.50;;
2452;SDS011;63678;47.994;7.854;2022-12-31T07:14:32;3.28;;;1.40;;
2452;SDS011;63678;47.994;7.854;2022-12-31T07:17:41;5.87;;;1.50;;
2452;SDS011;63678;47.994;7.854;2022-12-31T07:20:32;2.90;;;1.30;;
2452;SDS011;63678;47.994;7.854;2022-12-31T07:23:06;3.10;;;1.40;;
2452;SDS011;63678;47.994;7.854;2022-12-31T07:25:40;3.50;;;1.48;;
2452;SDS011;63678;47.994;7.854;2022-12-31T07:35:00;3.33;;;1.42;;
2452;SDS011;63678;47.994;7.854;2022-12-31T07:49:18;2.97;;;1.35;;
2452;SDS011;63678;47.994;7.854;2022-12-31T07:51:51;3.20;;;1.48;;
2452;SDS011;63678;47.994;7.854;2022-12-31T07:54:24;3.33;;;1.63;;
2452;SDS011;63678;47.994;7.854;2022-12-31T07:56:57;5.07;;;1.55;;
2452;SDS011;63678;47.994;7.854;2022-12-31T08:02:59;3.00;;;1.63;;
2452;SDS011;63678;47.994;7.854;2022-12-31T08:08:28;3.20;;;1.75;;
2452;SDS011;63678;47.994;7.854;2022-12-31T08:14:31;4.50;;;1.97;;
2452;SDS011;63678;47.994;7.854;2022-12-31T08:17:16;3.05;;;1.50;;
2452;SDS011;63678;47.994;7.854;2022-12-31T08:19:50;3.65;;;1.60;;
2452;SDS011;63678;47.994;7.854;2022-12-31T08:22:38;2.88;;;1.42;;
2452;SDS011;63678;47.994;7.854;2022-12-31T08:31:13;3.53;;;1.65;;
2452;SDS011;63678;47.994;7.854;2022-12-31T08:33:52;2.80;;;1.20;;
2452;SDS011;63678;47.994;7.854;2022-12-31T08:42:34;3.57;;;1.60;;
2452;SDS011;63678;47.994;7.854;2022-12-31T08:45:25;3.00;;;1.33;;
2452;SDS011;63678;47.994;7.854;2022-12-31T08:48:31;4.18;;;1.40;;
2452;SDS011;63678;47.994;7.854;2022-12-31T08:51:28;4.07;;;1.50;;
2452;SDS011;63678;47.994;7.854;2022-12-31T08:54:01;3.05;;;1.58;;
2452;SDS011;63678;47.994;7.854;2022-12-31T08:57:02;3.73;;;1.43;;
2452;SDS011;63678;47.994;7.854;2022-12-31T08:59:59;2.97;;;1.30;;
2452;SDS011;63678;47.994;7.854;2022-12-31T09:02:50;3.75;;;1.55;;
2452;SDS011;63678;47.994;7.854;2022-12-31T09:06:07;3.10;;;1.40;;
2452;SDS011;63678;47.994;7.854;2022-12-31T09:12:15;3.50;;;1.47;;
2452;SDS011;63678;47.994;7.854;2022-12-31T09:17:48;3.42;;;1.60;;
2452;SDS011;63678;47.994;7.854;2022-12-31T09:20:26;4.07;;;1.77;;
2452;SDS011;63678;47.994;7.854;2022-12-31T09:23:13;3.55;;;1.40;;
2452;SDS011;63678;47.994;7.854;2022-12-31T09:25:50;3.47;;;1.57;;
2452;SDS011;63678;47.994;7.854;2022-12-31T09:31:39;3.88;;;1.40;;
2452;SDS011;63678;47.994;7.854;2022-12-31T09:34:31;3.83;;;1.25;;
2452;SDS011;63678;47.994;7.854;2022-12-31T09:37:14;3.35;;;1.45;;
2452;SDS011;63678;47.994;7.854;2022-12-31T09:40:00;3.53;;;1.30;;
2452;SDS011;63678;47.994;7.854;2022-12-31T09:55:48;3.40;;;1.23;;
2452;SDS011;63678;47.994;7.854;2022-12-31T10:04:28;4.47;;;1.40;;
2452;SDS011;63678;47.994;7.854;2022-12-31T10:10:30;2.90;;;1.20;;
2452;SDS011;63678;47.994;7.854;2022-12-31T10:13:17;3.03;;;1.20;;
2452;SDS011;63678;47.994;7.854;2022-12-31T10:16:15;3.20;;;1.30;;
2452;SDS011;63678;47.994;7.854;2022-12-31T10:30:19;3.13;;;1.15;;
2452;SDS011;63678;47.994;7.854;2022-12-31T11:15:30;2.80;;;1.20;;
2452;SDS011;63678;47.994;7.854;2022-12-31T11:22:05;8.27;;;5.15;;
2452;SDS011;63678;47.994;7.854;2022-12-31T11:33:43;2.80;;;1.15;;
2452;SDS011;63678;47.994;7.854;2022-12-31T11:37:02;3.00;;;1.35;;
2452;SDS011;63678;47.994;7.854;2022-12-31T11:39:48;4.00;;;1.50;;
2452;SDS011;63678;47.994;7.854;2022-12-31T11:43:07;2.97;;;1.30;;
2452;SDS011;63678;47.994;7.854;2022-12-31T11:49:00;3.80;;;1.33;;
2452;SDS011;63678;47.994;7.854;2022-12-31T11:51:53;3.38;;;1.73;;
2452;SDS011;63678;47.994;7.854;2022-12-31T11:58:14;3.83;;;1.50;;
2452;SDS011;63678;47.994;7.854;2022-12-31T12:01:00;4.05;;;1.80;;
2452;SDS011;63678;47.994;7.854;2022-12-31T12:03:42;4.35;;;1.60;;
2452;SDS011;63678;47.994;7.854;2022-12-31T12:06:21;4.57;;;2.00;;
2452;SDS011;63678;47.994;7.854;2022-12-31T12:09:02;4.33;;;1.90;;
2452;SDS011;63678;47.994;7.854;2022-12-31T12:11:38;4.30;;;2.10;;
2452;SDS011;63678;47.994;7.854;2022-12-31T12:14:19;4.50;;;2.00;;
2452;SDS011;63678;47.994;7.854;2022-12-31T12:16:53;5.10;;;2.35;;
2452;SDS011;63678;47.994;7.854;2022-12-31T12:19:40;4.75;;;2.10;;
2452;SDS011;63678;47.994;7.854;2022-12-31T12:22:24;5.50;;;2.00;;
2452;SDS011;63678;47.994;7.854;2022-12-31T12:25:04;4.40;;;2.22;;
2452;SDS011;63678;47.994;7.854;2022-12-31T12:27:47;3.72;;;1.90;;
2452;SDS011;63678;47.994;7.854;2022-12-31T12:30:21;6.53;;;1.80;;
2452;SDS011;63678;47.994;7.854;2022-12-31T12:33:00;4.78;;;2.17;;
2452;SDS011;63678;47.994;7.854;2022-12-31T12:35:35;3.93;;;2.00;;
2452;SDS011;63678;47.994;7.854;2022-12-31T12:38:14;4.65;;;2.28;;
2452;SDS011;63678;47.994;7.854;2022-12-31T12:40:58;4.32;;;2.20;;
2452;SDS011;63678;47.994;7.854;2022-12-31T12:43:35;5.30;;;2.33;;
2452;SDS011;63678;47.994;7.854;2022-12-31T12:46:17;5.53;;;3.10;;
2452;SDS011;63678;47.994;7.854;2022-12-31T12:49:23;4.83;;;2.30;;
2452;SDS011;63678;47.994;7.854;2022-12-31T12:57:25;5.22;;;2.50;;
2452;SDS011;63678;47.994;7.854;2022-12-31T13:03:14;5.50;;;2.73;;
2452;SDS011;63678;47.994;7.854;2022-12-31T13:07:01;5.10;;;2.45;;
2452;SDS011;63678;47.994;7.854;2022-12-31T13:12:40;3.90;;;1.95;;
2452;SDS011;63678;47.994;7.854;2022-12-31T13:18:45;4.77;;;2.47;;
2452;SDS011;63678;47.994;7.854;2022-12-31T13:21:34;4.97;;;2.30;;
2452;SDS011;63678;47.994;7.854;2022-12-31T13:24:59;4.72;;;2.47;;
2452;SDS011;63678;47.994;7.854;2022-12-31T13:27:59;5.50;;;2.50;;
2452;SDS011;63678;47.994;7.854;2022-12-31T13:30:38;6.70;;;2.70;;
2452;SDS011;63678;47.994;7.854;2022-12-31T13:41:30;4.47;;;2.58;;
2452;SDS011;63678;47.994;7.854;2022-12-31T13:44:24;5.18;;;3.15;;
2452;SDS011;63678;47.994;7.854;2022-12-31T13:47:10;4.30;;;2.23;;
2452;SDS011;63678;47.994;7.854;2022-12-31T13:50:26;4.55;;;2.40;;
2452;SDS011;63678;47.994;7.854;2022-12-31T13:53:56;4.63;;;2.08;;
2452;SDS011;63678;47.994;7.854;2022-12-31T13:56:41;3.83;;;2.13;;
2452;SDS011;63678;47.994;7.854;2022-12-31T13:59:18;4.15;;;2.38;;
2452;SDS011;63678;47.994;7.854;2022-12-31T14:02:34;4.27;;;2.20;;
2452;SDS011;63678;47.994;7.854;2022-12-31T14:07:46;9.70;;;2.20;;
2452;SDS011;63678;47.994;7.854;2022-12-31T14:16:57;4.63;;;1.90;;
2452;SDS011;63678;47.994;7.854;2022-12-31T14:19:55;4.55;;;2.10;;
2452;SDS011;63678;47.994;7.854;2022-12-31T14:23:06;4.93;;;2.58;;
2452;SDS011;63678;47.994;7.854;2022-12-31T14:26:10;6.25;;;2.40;;
2452;SDS011;63678;47.994;7.854;2022-12-31T14:28:58;6.25;;;2.10;;
2452;SDS011;63678;47.994;7.854;2022-12-31T14:34:59;5.47;;;2.40;;
2452;SDS011;63678;47.994;7.854;2022-12-31T14:37:29;5.70;;;1.90;;
2452;SDS011;63678;47.994;7.854;2022-12-31T14:43:38;6.68;;;3.20;;
2452;SDS011;63678;47.994;7.854;2022-12-31T14:46:26;8.47;;;2.50;;
2452;SDS011;63678;47.994;7.854;2022-12-31T14:52:25;9.88;;;3.30;;
2452;SDS011;63678;47.994;7.854;2022-12-31T14:55:55;6.50;;;2.45;;
2452;SDS011;63678;47.994;7.854;2022-12-31T14:58:00;5.57;;;2.60;;
2452;SDS011;63678;47.994;7.854;2022-12-31T15:00:59;4.73;;;2.50;;
2452;SDS011;63678;47.994;7.854;2022-12-31T15:03:40;5.57;;;2.85;;
2452;SDS011;63678;47.994;7.854;2022-12-31T15:14:33;7.87;;;3.30;;
2452;SDS011;63678;47.994;7.854;2022-12-31T15:17:44;12.07;;;4.10;;
2452;SDS011;63678;47.994;7.854;2022-12-31T15:20:43;7.30;;;3.45;;
2452;SDS011;63678;47.994;7.854;2022-12-31T15:23:55;7.07;;;3.75;;
2452;SDS011;63678;47.994;7.854;2022-12-31T15:26:29;10.38;;;4.40;;
2452;SDS011;63678;47.994;7.854;2022-12-31T15:29:04;9.03;;;4.00;;
2452;SDS011;63678;47.994;7.854;2022-12-31T15:31:43;9.40;;;4.45;;
2452;SDS011;63678;47.994;7.854;2022-12-31T15:37:25;8.93;;;4.25;;
2452;SDS011;63678;47.994;7.854;2022-12-31T15:40:16;6.35;;;3.47;;
2452;SDS011;63678;47.994;7.854;2022-12-31T15:43:08;7.07;;;3.93;;
2452;SDS011;63678;47.994;7.854;2022-12-31T15:46:17;8.15;;;3.28;;
2452;SDS011;63678;47.994;7.854;2022-12-31T15:49:15;7.40;;;3.20;;
2452;SDS011;63678;47.994;7.854;2022-12-31T15:54:28;6.10;;;3.22;;
2452;SDS011;63678;47.994;7.854;2022-12-31T15:57:16;6.13;;;3.33;;
2452;SDS011;63678;47.994;7.854;2022-12-31T15:59:50;7.75;;;4.00;;
2452;SDS011;63678;47.994;7.854;2022-12-31T16:02:30;6.43;;;3.58;;
2452;SDS011;63678;47.994;7.854;2022-12-31T16:05:03;11.35;;;4.25;;
2452;SDS011;63678;47.994;7.854;2022-12-31T16:07:36;6.95;;;3.40;;
2452;SDS011;63678;47.994;7.854;2022-12-31T16:10:14;6.83;;;3.20;;
2452;SDS011;63678;47.994;7.854;2022-12-31T16:12:51;6.00;;;3.38;;
2452;SDS011;63678;47.994;7.854;2022-12-31T16:15:28;8.55;;;3.08;;
2452;SDS011;63678;47.994;7.854;2022-12-31T16:18:04;7.05;;;3.45;;
2452;SDS011;63678;47.994;7.854;2022-12-31T16:20:42;6.85;;;3.58;;
2452;SDS011;63678;47.994;7.854;2022-12-31T16:23:23;8.50;;;3.50;;
2452;SDS011;63678;47.994;7.854;2022-12-31T16:25:58;7.25;;;3.72;;
2452;SDS011;63678;47.994;7.854;2022-12-31T16:28:33;13.18;;;5.28;;
2452;SDS011;63678;47.994;7.854;2022-12-31T16:31:06;8.32;;;4.70;;
2452;SDS011;63678;47.994;7.854;2022-12-31T16:33:47;7.40;;;4.47;;
2452;SDS011;63678;47.994;7.854;2022-12-31T16:36:20;7.73;;;5.17;;
2452;SDS011;63678;47.994;7.854;2022-12-31T16:39:00;10.23;;;5.05;;
2452;SDS011;63678;47.994;7.854;2022-12-31T16:42:06;9.27;;;4.35;;
2452;SDS011;63678;47.994;7.854;2022-12-31T16:44:45;6.25;;;3.67;;
2452;SDS011;63678;47.994;7.854;2022-12-31T16:47:20;7.57;;;4.15;;
2452;SDS011;63678;47.994;7.854;2022-12-31T16:49:58;7.53;;;4.27;;
2452;SDS011;63678;47.994;7.854;2022-12-31T16:52:37;8.18;;;4.22;;
2452;SDS011;63678;47.994;7.854;2022-12-31T16:57:53;9.82;;;4.13;;
2452;SDS011;63678;47.994;7.854;2022-12-31T17:00:31;11.05;;;5.65;;
2452;SDS011;63678;47.994;7.854;2022-12-31T17:03:25;8.63;;;4.30;;
2452;SDS011;63678;47.994;7.854;2022-12-31T17:08:41;8.02;;;4.90;;
2452;SDS011;63678;47.994;7.854;2022-12-31T17:11:32;7.80;;;4.85;;
2452;SDS011;63678;47.994;7.854;2022-12-31T17:22:26;10.43;;;5.25;;
2452;SDS011;63678;47.994;7.854;2022-12-31T17:25:13;25.77;;;15.73;;
2452;SDS011;63678;47.994;7.854;2022-12-31T17:27:58;38.15;;;24.65;;
2452;SDS011;63678;47.994;7.854;2022-12-31T17:30:37;14.73;;;7.33;;
2452;SDS011;63678;47.994;7.854;2022-12-31T17:38:49;6.80;;;4.60;;
2452;SDS011;63678;47.994;7.854;2022-12-31T17:41:25;11.48;;;5.38;;
2452;SDS011;63678;47.994;7.854;2022-12-31T17:43:58;7.30;;;4.90;;
2452;SDS011;63678;47.994;7.854;2022-12-31T17:46:30;7.20;;;5.30;;
2452;SDS011;63678;47.994;7.854;2022-12-31T17:49:08;8.95;;;5.20;;
2452;SDS011;63678;47.994;7.854;2022-12-31T17:51:46;11.95;;;7.10;;
2452;SDS011;63678;47.994;7.854;2022-12-31T17:54:18;9.45;;;6.35;;
2452;SDS011;63678;47.994;7.854;2022-12-31T17:56:51;11.67;;;7.10;;
2452;SDS011;63678;47.994;7.854;2022-12-31T17:59:24;10.70;;;6.88;;
2452;SDS011;63678;47.994;7.854;2022-12-31T18:02:04;10.60;;;6.60;;
2452;SDS011;63678;47.994;7.854;2022-12-31T18:04:43;9.43;;;6.07;;
2452;SDS011;63678;47.994;7.854;2022-12-31T18:07:15;12.52;;;7.00;;
2452;SDS011;63678;47.994;7.854;2022-12-31T18:09:47;17.70;;;10.27;;
2452;SDS011;63678;47.994;7.854;2022-12-31T18:12:19;12.30;;;7.55;;
2452;SDS011;63678;47.994;7.854;2022-12-31T18:14:53;16.00;;;8.57;;
2452;SDS011;63678;47.994;7.854;2022-12-31T18:17:26;12.38;;;8.77;;
2452;SDS011;63678;47.994;7.854;2022-12-31T18:19:59;14.82;;;9.05;;
2452;SDS011;63678;47.994;7.854;2022-12-31T18:22:37;18.47;;;9.67;;
2452;SDS011;63678;47.994;7.854;2022-12-31T18:25:17;15.18;;;8.95;;
2452;SDS011;63678;47.994;7.854;2022-12-31T18:27:52;16.55;;;9.32;;
2452;SDS011;63678;47.994;7.854;2022-12-31T18:30:24;17.83;;;10.77;;
2452;SDS011;63678;47.994;7.854;2022-12-31T18:32:57;18.10;;;10.98;;
2452;SDS011;63678;47.994;7.854;2022-12-31T18:35:29;13.70;;;8.03;;
2452;SDS011;63678;47.994;7.854;2022-12-31T18:38:22;19.08;;;10.63;;
2452;SDS011;63678;47.994;7.854;2022-12-31T18:40:56;18.92;;;10.95;;
2452;SDS011;63678;47.994;7.854;2022-12-31T18:43:29;18.13;;;11.18;;
2452;SDS011;63678;47.994;7.854;2022-12-31T18:46:02;16.38;;;10.00;;
2452;SDS011;63678;47.994;7.854;2022-12-31T18:48:35;18.88;;;10.00;;
2452;SDS011;63678;47.994;7.854;2022-12-31T18:51:15;14.45;;;8.85;;
2452;SDS011;63678;47.994;7.854;2022-12-31T18:54:02;13.93;;;9.20;;
2452;SDS011;63678;47.994;7.854;2022-12-31T18:56:35;16.25;;;9.18;;
2452;SDS011;63678;47.994;7.854;2022-12-31T18:59:15;14.18;;;7.93;;
2452;SDS011;63678;47.994;7.854;2022-12-31T19:01:48;19.77;;;12.97;;
2452;SDS011;63678;47.994;7.854;2022-12-31T19:04:20;21.10;;;14.80;;
2452;SDS011;63678;47.994;7.854;2022-12-31T19:06:58;25.58;;;16.88;;
2452;SDS011;63678;47.994;7.854;2022-12-31T19:09:31;23.65;;;14.73;;
2452;SDS011;63678;47.994;7.854;2022-12-31T19:12:24;28.50;;;14.50;;
2452;SDS011;63678;47.994;7.854;2022-12-31T19:14:56;23.93;;;13.37;;
2452;SDS011;63678;47.994;7.854;2022-12-31T19:17:29;16.15;;;10.00;;
2452;SDS011;63678;47.994;7.854;2022-12-31T19:20:02;15.63;;;9.40;;
2452;SDS011;63678;47.994;7.854;2022-12-31T19:22:35;16.13;;;10.07;;
2452;SDS011;63678;47.994;7.854;2022-12-31T19:25:18;16.70;;;10.07;;
2452;SDS011;63678;47.994;7.854;2022-12-31T19:27:54;20.27;;;12.17;;
2452;SDS011;63678;47.994;7.854;2022-12-31T19:30:28;17.83;;;10.07;;
2452;SDS011;63678;47.994;7.854;2022-12-31T19:33:04;19.25;;;11.20;;
2452;SDS011;63678;47.994;7.854;2022-12-31T19:35:37;17.60;;;10.05;;
2452;SDS011;63678;47.994;7.854;2022-12-31T19:38:11;13.93;;;8.75;;
2452;SDS011;63678;47.994;7.854;2022-12-31T19:40:52;16.93;;;9.77;;
2452;SDS011;63678;47.994;7.854;2022-12-31T19:43:25;30.20;;;16.83;;
2452;SDS011;63678;47.994;7.854;2022-12-31T19:45:57;29.98;;;18.67;;
2452;SDS011;63678;47.994;7.854;2022-12-31T19:48:34;38.42;;;22.63;;
2452;SDS011;63678;47.994;7.854;2022-12-31T19:51:08;71.45;;;38.50;;
2452;SDS011;63678;47.994;7.854;2022-12-31T19:53:52;41.60;;;26.58;;
2452;SDS011;63678;47.994;7.854;2022-12-31T19:56:24;42.50;;;24.77;;
2452;SDS011;63678;47.994;7.854;2022-12-31T19:58:57;39.88;;;23.92;;
2452;SDS011;63678;47.994;7.854;2022-12-31T20:01:34;115.68;;;54.45;;
2452;SDS011;63678;47.994;7.854;2022-12-31T20:04:07;67.90;;;38.30;;
2452;SDS011;63678;47.994;7.854;2022-12-31T20:06:40;61.47;;;36.63;;
2452;SDS011;63678;47.994;7.854;2022-12-31T20:09:13;59.22;;;36.75;;
2452;SDS011;63678;47.994;7.854;2022-12-31T20:11:45;56.80;;;36.20;;
2452;SDS011;63678;47.994;7.854;2022-12-31T20:14:17;40.80;;;23.67;;
2452;SDS011;63678;47.994;7.854;2022-12-31T20:16:50;89.63;;;47.95;;
2452;SDS011;63678;47.994;7.854;2022-12-31T20:19:23;48.10;;;29.03;;
2452;SDS011;63678;47.994;7.854;2022-12-31T20:21:56;57.22;;;33.78;;